sensor_id;sensor_type;location;lat;lon;timestamp;P1;durP1;ratioP1;P2;durP2;ratioP2
66118;SDS011;52912;48.564;9.302;2024-03-29T00:02:01;2.30;;;0.50;;
66118;SDS011;52912;48.564;9.302;2024-03-29T00:04:26;0.47;;;0.47;;
66118;SDS011;52912;48.564;9.302;2024-03-29T00:06:52;3.55;;;0.47;;
66118;SDS011;52912;48.564;9.302;2024-03-29T00:09:17;0.60;;;0.60;;
66118;SDS011;52912;48.564;9.302;2024-03-29T00:11:43;0.70;;;0.50;;
66118;SDS011;52912;48.564;9.302;2024-03-29T00:14:08;0.60;;;0.55;;
66118;SDS011;52912;48.564;9.302;2024-03-29T00:16:35;0.80;;;0.50;;
66118;SDS011;52912;48.564;9.302;2024-03-29T00:19:00;0.30;;;0.30;;
66118;SDS011;52912;48.564;9.302;2024-03-29T00:21:26;0.47;;;0.47;;
66118;SDS011;52912;48.564;9.302;2024-03-29T00:23:51;0.47;;;0.47;;
66118;SDS011;52912;48.564;9.302;2024-03-29T00:26:17;0.30;;;0.30;;
66118;SDS011;52912;48.564;9.302;2024-03-29T00:28:42;0.40;;;0.40;;
66118;SDS011;52912;48.564;9.302;2024-03-29T00:31:08;0.32;;;0.30;;
66118;SDS011;52912;48.564;9.302;2024-03-29T00:33:35;1.60;;;0.63;;
66118;SDS011;52912;48.564;9.302;2024-03-29T00:36:00;0.65;;;0.63;;
66118;SDS011;52912;48.564;9.302;2024-03-29T00:38:26;0.70;;;0.70;;
66118;SDS011;52912;48.564;9.302;2024-03-29T00:40:51;0.43;;;0.43;;
66118;SDS011;52912;48.564;9.302;2024-03-29T00:43:17;0.38;;;0.38;;
66118;SDS011;52912;48.564;9.302;2024-03-29T00:45:42;0.43;;;0.43;;
66118;SDS011;52912;48.564;9.302;2024-03-29T00:48:07;0.60;;;0.55;;
66118;SDS011;52912;48.564;9.302;2024-03-29T00:50:34;0.57;;;0.50;;
66118;SDS011;52912;48.564;9.302;2024-03-29T00:53:00;0.45;;;0.45;;
66118;SDS011;52912;48.564;9.302;2024-03-29T00:55:25;0.40;;;0.40;;
66118;SDS011;52912;48.564;9.302;2024-03-29T00:57:50;0.40;;;0.40;;
66118;SDS011;52912;48.564;9.302;2024-03-29T01:00:16;0.50;;;0.50;;
66118;SDS011;52912;48.564;9.302;2024-03-29T01:02:42;0.40;;;0.40;;
66118;SDS011;52912;48.564;9.302;2024-03-29T01:05:07;2.17;;;0.52;;
66118;SDS011;52912;48.564;9.302;2024-03-29T01:07:34;0.40;;;0.40;;
66118;SDS011;52912;48.564;9.302;2024-03-29T01:10:00;0.45;;;0.40;;
66118;SDS011;52912;48.564;9.302;2024-03-29T01:12:25;0.38;;;0.38;;
66118;SDS011;52912;48.564;9.302;2024-03-29T01:14:50;0.28;;;0.28;;
66118;SDS011;52912;48.564;9.302;2024-03-29T01:17:16;0.47;;;0.47;;
66118;SDS011;52912;48.564;9.302;2024-03-29T01:19:41;0.47;;;0.47;;
66118;SDS011;52912;48.564;9.302;2024-03-29T01:22:07;0.60;;;0.40;;
66118;SDS011;52912;48.564;9.302;2024-03-29T01:24:34;0.45;;;0.45;;
66118;SDS011;52912;48.564;9.302;2024-03-29T01:26:59;1.65;;;0.52;;
66118;SDS011;52912;48.564;9.302;2024-03-29T01:29:25;0.47;;;0.47;;
66118;SDS011;52912;48.564;9.302;2024-03-29T01:31:50;0.32;;;0.32;;
66118;SDS011;52912;48.564;9.302;2024-03-29T01:34:16;0.52;;;0.52;;
66118;SDS011;52912;48.564;9.302;2024-03-29T01:36:41;0.40;;;0.40;;
66118;SDS011;52912;48.564;9.302;2024-03-29T01:39:07;0.45;;;0.45;;
66118;SDS011;52912;48.564;9.302;2024-03-29T01:41:33;0.50;;;0.50;;
66118;SDS011;52912;48.564;9.302;2024-03-29T01:43:59;0.30;;;0.30;;
66118;SDS011;52912;48.564;9.302;2024-03-29T01:46:24;0.57;;;0.50;;
66118;SDS011;52912;48.564;9.302;2024-03-29T01:48:51;0.60;;;0.40;;
66118;SDS011;52912;48.564;9.302;2024-03-29T01:51:17;0.55;;;0.47;;
66118;SDS011;52912;48.564;9.302;2024-03-29T01:53:44;0.35;;;0.35;;
66118;SDS011;52912;48.564;9.302;2024-03-29T01:56:12;0.93;;;0.40;;
66118;SDS011;52912;48.564;9.302;2024-03-29T01:58:40;0.40;;;0.40;;
66118;SDS011;52912;48.564;9.302;2024-03-29T02:01:05;0.32;;;0.32;;
66118;SDS011;52912;48.564;9.302;2024-03-29T02:03:32;0.40;;;0.40;;
66118;SDS011;52912;48.564;9.302;2024-03-29T02:05:58;0.60;;;0.60;;
66118;SDS011;52912;48.564;9.302;2024-03-29T02:08:23;0.35;;;0.35;;
66118;SDS011;52912;48.564;9.302;2024-03-29T02:10:49;0.30;;;0.30;;
66118;SDS011;52912;48.564;9.302;2024-03-29T02:13:14;0.30;;;0.30;;
66118;SDS011;52912;48.564;9.302;2024-03-29T02:15:41;0.38;;;0.38;;
66118;SDS011;52912;48.564;9.302;2024-03-29T02:18:07;0.52;;;0.40;;
66118;SDS011;52912;48.564;9.302;2024-03-29T02:20:33;0.43;;;0.43;;
66118;SDS011;52912;48.564;9.302;2024-03-29T02:23:00;0.25;;;0.20;;
66118;SDS011;52912;48.564;9.302;2024-03-29T02:25:32;0.25;;;0.25;;
66118;SDS011;52912;48.564;9.302;2024-03-29T02:27:58;0.30;;;0.30;;
66118;SDS011;52912;48.564;9.302;2024-03-29T02:30:24;0.30;;;0.30;;
66118;SDS011;52912;48.564;9.302;2024-03-29T02:32:50;0.30;;;0.30;;
66118;SDS011;52912;48.564;9.302;2024-03-29T02:35:15;0.40;;;0.40;;
66118;SDS011;52912;48.564;9.302;2024-03-29T02:37:41;0.30;;;0.30;;
66118;SDS011;52912;48.564;9.302;2024-03-29T02:40:06;0.28;;;0.28;;
66118;SDS011;52912;48.564;9.302;2024-03-29T02:42:34;0.30;;;0.30;;
66118;SDS011;52912;48.564;9.302;2024-03-29T02:44:59;0.20;;;0.20;;
66118;SDS011;52912;48.564;9.302;2024-03-29T02:47:25;0.50;;;0.50;;
66118;SDS011;52912;48.564;9.302;2024-03-29T02:49:50;1.85;;;0.40;;
66118;SDS011;52912;48.564;9.302;2024-03-29T02:52:16;1.00;;;0.52;;
66118;SDS011;52912;48.564;9.302;2024-03-29T02:54:41;0.47;;;0.47;;
66118;SDS011;52912;48.564;9.302;2024-03-29T02:57:07;0.20;;;0.20;;
66118;SDS011;52912;48.564;9.302;2024-03-29T02:59:34;0.40;;;0.40;;
66118;SDS011;52912;48.564;9.302;2024-03-29T03:01:59;0.52;;;0.52;;
66118;SDS011;52912;48.564;9.302;2024-03-29T03:04:24;0.30;;;0.30;;
66118;SDS011;52912;48.564;9.302;2024-03-29T03:06:50;0.20;;;0.20;;
66118;SDS011;52912;48.564;9.302;2024-03-29T03:09:15;0.40;;;0.40;;
66118;SDS011;52912;48.564;9.302;2024-03-29T03:11:41;0.45;;;0.40;;
66118;SDS011;52912;48.564;9.302;2024-03-29T03:14:06;0.20;;;0.20;;
66118;SDS011;52912;48.564;9.302;2024-03-29T03:16:33;0.30;;;0.30;;
66118;SDS011;52912;48.564;9.302;2024-03-29T03:18:58;0.52;;;0.52;;
66118;SDS011;52912;48.564;9.302;2024-03-29T03:21:24;0.55;;;0.30;;
66118;SDS011;52912;48.564;9.302;2024-03-29T03:23:49;0.50;;;0.40;;
66118;SDS011;52912;48.564;9.302;2024-03-29T03:26:15;0.40;;;0.40;;
66118;SDS011;52912;48.564;9.302;2024-03-29T03:28:40;0.40;;;0.40;;
66118;SDS011;52912;48.564;9.302;2024-03-29T03:31:06;1.85;;;0.50;;
66118;SDS011;52912;48.564;9.302;2024-03-29T03:33:32;0.45;;;0.40;;
66118;SDS011;52912;48.564;9.302;2024-03-29T03:35:58;0.52;;;0.40;;
66118;SDS011;52912;48.564;9.302;2024-03-29T03:38:23;0.50;;;0.50;;
66118;SDS011;52912;48.564;9.302;2024-03-29T03:40:49;0.30;;;0.30;;
66118;SDS011;52912;48.564;9.302;2024-03-29T03:43:14;0.50;;;0.43;;
66118;SDS011;52912;48.564;9.302;2024-03-29T03:45:40;0.80;;;0.70;;
66118;SDS011;52912;48.564;9.302;2024-03-29T03:48:06;0.50;;;0.50;;
66118;SDS011;52912;48.564;9.302;2024-03-29T03:50:33;0.47;;;0.47;;
66118;SDS011;52912;48.564;9.302;2024-03-29T03:52:59;0.70;;;0.70;;
66118;SDS011;52912;48.564;9.302;2024-03-29T03:55:25;0.30;;;0.30;;
66118;SDS011;52912;48.564;9.302;2024-03-29T03:57:50;0.50;;;0.50;;
66118;SDS011;52912;48.564;9.302;2024-03-29T04:00:16;0.68;;;0.45;;
66118;SDS011;52912;48.564;9.302;2024-03-29T04:02:46;0.47;;;0.47;;
66118;SDS011;52912;48.564;9.302;2024-03-29T04:05:12;1.45;;;0.40;;
66118;SDS011;52912;48.564;9.302;2024-03-29T04:07:39;0.40;;;0.40;;
66118;SDS011;52912;48.564;9.302;2024-03-29T04:10:04;0.73;;;0.40;;
66118;SDS011;52912;48.564;9.302;2024-03-29T04:12:30;2.20;;;0.45;;
66118;SDS011;52912;48.564;9.302;2024-03-29T04:14:56;0.30;;;0.30;;
66118;SDS011;52912;48.564;9.302;2024-03-29T04:17:22;0.20;;;0.20;;
66118;SDS011;52912;48.564;9.302;2024-03-29T04:19:48;0.30;;;0.30;;
66118;SDS011;52912;48.564;9.302;2024-03-29T04:22:13;0.28;;;0.28;;
66118;SDS011;52912;48.564;9.302;2024-03-29T04:24:40;0.30;;;0.30;;
66118;SDS011;52912;48.564;9.302;2024-03-29T04:27:05;0.63;;;0.40;;
66118;SDS011;52912;48.564;9.302;2024-03-29T04:29:31;0.30;;;0.30;;
66118;SDS011;52912;48.564;9.302;2024-03-29T04:31:57;0.30;;;0.30;;
66118;SDS011;52912;48.564;9.302;2024-03-29T04:34:23;0.30;;;0.30;;
66118;SDS011;52912;48.564;9.302;2024-03-29T04:36:48;1.13;;;0.40;;
66118;SDS011;52912;48.564;9.302;2024-03-29T04:39:14;0.28;;;0.28;;
66118;SDS011;52912;48.564;9.302;2024-03-29T04:41:40;0.40;;;0.40;;
66118;SDS011;52912;48.564;9.302;2024-03-29T04:44:06;0.30;;;0.30;;
66118;SDS011;52912;48.564;9.302;2024-03-29T04:46:31;0.32;;;0.32;;
66118;SDS011;52912;48.564;9.302;2024-03-29T04:48:57;0.30;;;0.30;;
66118;SDS011;52912;48.564;9.302;2024-03-29T04:51:23;0.38;;;0.38;;
66118;SDS011;52912;48.564;9.302;2024-03-29T04:53:48;0.40;;;0.40;;
66118;SDS011;52912;48.564;9.302;2024-03-29T04:56:14;0.50;;;0.50;;
66118;SDS011;52912;48.564;9.302;2024-03-29T04:58:40;0.65;;;0.52;;
66118;SDS011;52912;48.564;9.302;2024-03-29T05:01:06;0.70;;;0.70;;
66118;SDS011;52912;48.564;9.302;2024-03-29T05:03:31;0.50;;;0.43;;
66118;SDS011;52912;48.564;9.302;2024-03-29T05:05:57;0.60;;;0.60;;
66118;SDS011;52912;48.564;9.302;2024-03-29T05:08:22;1.02;;;0.90;;
66118;SDS011;52912;48.564;9.302;2024-03-29T05:10:48;1.38;;;0.70;;
66118;SDS011;52912;48.564;9.302;2024-03-29T05:13:14;0.57;;;0.57;;
66118;SDS011;52912;48.564;9.302;2024-03-29T05:15:40;0.70;;;0.70;;
66118;SDS011;52912;48.564;9.302;2024-03-29T05:18:06;0.98;;;0.50;;
66118;SDS011;52912;48.564;9.302;2024-03-29T05:20:31;1.45;;;0.93;;
66118;SDS011;52912;48.564;9.302;2024-03-29T05:22:57;0.80;;;0.70;;
66118;SDS011;52912;48.564;9.302;2024-03-29T05:25:23;0.60;;;0.50;;
66118;SDS011;52912;48.564;9.302;2024-03-29T05:27:48;0.40;;;0.40;;
66118;SDS011;52912;48.564;9.302;2024-03-29T05:30:14;0.68;;;0.60;;
66118;SDS011;52912;48.564;9.302;2024-03-29T05:32:41;1.58;;;0.63;;
66118;SDS011;52912;48.564;9.302;2024-03-29T05:35:06;0.45;;;0.35;;
66118;SDS011;52912;48.564;9.302;2024-03-29T05:37:32;1.85;;;0.80;;
66118;SDS011;52912;48.564;9.302;2024-03-29T05:39:58;0.95;;;0.68;;
66118;SDS011;52912;48.564;9.302;2024-03-29T05:42:23;0.50;;;0.50;;
66118;SDS011;52912;48.564;9.302;2024-03-29T05:44:49;0.60;;;0.50;;
66118;SDS011;52912;48.564;9.302;2024-03-29T05:47:14;0.77;;;0.60;;
66118;SDS011;52912;48.564;9.302;2024-03-29T05:49:41;0.65;;;0.65;;
66118;SDS011;52912;48.564;9.302;2024-03-29T05:52:06;0.40;;;0.40;;
66118;SDS011;52912;48.564;9.302;2024-03-29T05:54:32;0.63;;;0.63;;
66118;SDS011;52912;48.564;9.302;2024-03-29T05:56:57;2.53;;;1.05;;
66118;SDS011;52912;48.564;9.302;2024-03-29T05:59:22;0.50;;;0.50;;
66118;SDS011;52912;48.564;9.302;2024-03-29T06:01:48;1.40;;;0.80;;
66118;SDS011;52912;48.564;9.302;2024-03-29T06:04:13;0.60;;;0.50;;
66118;SDS011;52912;48.564;9.302;2024-03-29T06:06:40;0.40;;;0.40;;
66118;SDS011;52912;48.564;9.302;2024-03-29T06:09:06;0.75;;;0.60;;
66118;SDS011;52912;48.564;9.302;2024-03-29T06:11:31;0.60;;;0.50;;
66118;SDS011;52912;48.564;9.302;2024-03-29T06:13:56;0.40;;;0.40;;
66118;SDS011;52912;48.564;9.302;2024-03-29T06:16:23;0.50;;;0.50;;
66118;SDS011;52912;48.564;9.302;2024-03-29T06:18:50;0.50;;;0.50;;
66118;SDS011;52912;48.564;9.302;2024-03-29T06:21:15;0.60;;;0.60;;
66118;SDS011;52912;48.564;9.302;2024-03-29T06:23:42;0.38;;;0.38;;
66118;SDS011;52912;48.564;9.302;2024-03-29T06:26:07;1.40;;;0.63;;
66118;SDS011;52912;48.564;9.302;2024-03-29T06:28:33;0.93;;;0.45;;
66118;SDS011;52912;48.564;9.302;2024-03-29T06:30:58;0.40;;;0.40;;
66118;SDS011;52912;48.564;9.302;2024-03-29T06:33:24;0.50;;;0.50;;
66118;SDS011;52912;48.564;9.302;2024-03-29T06:35:53;0.47;;;0.47;;
66118;SDS011;52912;48.564;9.302;2024-03-29T06:38:18;1.00;;;0.80;;
66118;SDS011;52912;48.564;9.302;2024-03-29T06:40:45;0.50;;;0.50;;
66118;SDS011;52912;48.564;9.302;2024-03-29T06:43:11;2.03;;;0.90;;
66118;SDS011;52912;48.564;9.302;2024-03-29T06:45:39;1.25;;;0.60;;
66118;SDS011;52912;48.564;9.302;2024-03-29T06:48:05;0.83;;;0.73;;
66118;SDS011;52912;48.564;9.302;2024-03-29T06:50:30;1.17;;;0.80;;
66118;SDS011;52912;48.564;9.302;2024-03-29T06:52:56;1.38;;;1.10;;
66118;SDS011;52912;48.564;9.302;2024-03-29T06:55:21;2.67;;;1.40;;
66118;SDS011;52912;48.564;9.302;2024-03-29T06:57:48;1.60;;;1.10;;
66118;SDS011;52912;48.564;9.302;2024-03-29T07:00:14;0.98;;;0.90;;
66118;SDS011;52912;48.564;9.302;2024-03-29T07:02:39;2.10;;;1.35;;
66118;SDS011;52912;48.564;9.302;2024-03-29T07:05:05;1.75;;;1.17;;
66118;SDS011;52912;48.564;9.302;2024-03-29T07:07:30;1.52;;;1.10;;
66118;SDS011;52912;48.564;9.302;2024-03-29T07:09:56;1.67;;;1.20;;
66118;SDS011;52912;48.564;9.302;2024-03-29T07:12:21;0.95;;;0.93;;
66118;SDS011;52912;48.564;9.302;2024-03-29T07:14:48;1.40;;;1.02;;
66118;SDS011;52912;48.564;9.302;2024-03-29T07:17:14;1.65;;;1.10;;
66118;SDS011;52912;48.564;9.302;2024-03-29T07:19:39;1.13;;;1.00;;
66118;SDS011;52912;48.564;9.302;2024-03-29T07:22:05;1.20;;;1.00;;
66118;SDS011;52912;48.564;9.302;2024-03-29T07:24:30;1.58;;;1.10;;
66118;SDS011;52912;48.564;9.302;2024-03-29T07:26:55;1.15;;;1.02;;
66118;SDS011;52912;48.564;9.302;2024-03-29T07:29:21;1.42;;;1.10;;
66118;SDS011;52912;48.564;9.302;2024-03-29T07:31:48;1.65;;;1.15;;
66118;SDS011;52912;48.564;9.302;2024-03-29T07:34:13;0.90;;;0.90;;
66118;SDS011;52912;48.564;9.302;2024-03-29T07:36:38;2.17;;;1.50;;
66118;SDS011;52912;48.564;9.302;2024-03-29T07:39:04;1.70;;;1.23;;
66118;SDS011;52912;48.564;9.302;2024-03-29T07:41:29;2.38;;;1.33;;
66118;SDS011;52912;48.564;9.302;2024-03-29T07:43:55;1.40;;;1.30;;
66118;SDS011;52912;48.564;9.302;2024-03-29T07:46:21;2.15;;;1.58;;
66118;SDS011;52912;48.564;9.302;2024-03-29T07:48:49;1.30;;;1.20;;
66118;SDS011;52912;48.564;9.302;2024-03-29T07:51:14;1.27;;;1.10;;
66118;SDS011;52912;48.564;9.302;2024-03-29T07:53:40;1.80;;;1.27;;
66118;SDS011;52912;48.564;9.302;2024-03-29T07:56:05;1.30;;;1.20;;
66118;SDS011;52912;48.564;9.302;2024-03-29T07:58:31;1.58;;;1.17;;
66118;SDS011;52912;48.564;9.302;2024-03-29T08:00:56;2.53;;;1.30;;
66118;SDS011;52912;48.564;9.302;2024-03-29T08:03:22;1.88;;;1.30;;
66118;SDS011;52912;48.564;9.302;2024-03-29T08:05:57;2.05;;;1.20;;
66118;SDS011;52912;48.564;9.302;2024-03-29T08:08:22;2.03;;;1.20;;
66118;SDS011;52912;48.564;9.302;2024-03-29T08:10:48;0.98;;;0.98;;
66118;SDS011;52912;48.564;9.302;2024-03-29T08:13:13;1.45;;;1.15;;
66118;SDS011;52912;48.564;9.302;2024-03-29T08:15:39;2.38;;;1.33;;
66118;SDS011;52912;48.564;9.302;2024-03-29T08:18:04;1.80;;;1.25;;
66118;SDS011;52912;48.564;9.302;2024-03-29T08:20:30;1.65;;;1.20;;
66118;SDS011;52912;48.564;9.302;2024-03-29T08:22:59;1.63;;;1.23;;
66118;SDS011;52912;48.564;9.302;2024-03-29T08:25:24;1.80;;;1.27;;
66118;SDS011;52912;48.564;9.302;2024-03-29T08:27:50;1.92;;;1.45;;
66118;SDS011;52912;48.564;9.302;2024-03-29T08:30:15;1.45;;;1.30;;
66118;SDS011;52912;48.564;9.302;2024-03-29T08:32:41;1.98;;;1.30;;
66118;SDS011;52912;48.564;9.302;2024-03-29T08:35:06;1.35;;;1.13;;
66118;SDS011;52912;48.564;9.302;2024-03-29T08:37:32;1.05;;;0.98;;
66118;SDS011;52912;48.564;9.302;2024-03-29T08:39:59;1.20;;;1.10;;
66118;SDS011;52912;48.564;9.302;2024-03-29T08:42:25;1.48;;;1.23;;
66118;SDS011;52912;48.564;9.302;2024-03-29T08:44:50;1.83;;;1.00;;
66118;SDS011;52912;48.564;9.302;2024-03-29T08:47:15;1.52;;;1.30;;
66118;SDS011;52912;48.564;9.302;2024-03-29T08:49:41;1.27;;;1.10;;
66118;SDS011;52912;48.564;9.302;2024-03-29T08:52:06;1.40;;;0.93;;
66118;SDS011;52912;48.564;9.302;2024-03-29T08:54:32;1.10;;;0.70;;
66118;SDS011;52912;48.564;9.302;2024-03-29T08:56:58;1.05;;;0.90;;
66118;SDS011;52912;48.564;9.302;2024-03-29T08:59:24;1.55;;;0.80;;
66118;SDS011;52912;48.564;9.302;2024-03-29T09:01:49;1.10;;;1.00;;
66118;SDS011;52912;48.564;9.302;2024-03-29T09:04:15;2.03;;;1.10;;
66118;SDS011;52912;48.564;9.302;2024-03-29T09:06:40;2.95;;;1.40;;
66118;SDS011;52912;48.564;9.302;2024-03-29T09:09:06;1.45;;;1.17;;
66118;SDS011;52912;48.564;9.302;2024-03-29T09:11:32;4.72;;;1.50;;
66118;SDS011;52912;48.564;9.302;2024-03-29T09:13:59;1.38;;;1.08;;
66118;SDS011;52912;48.564;9.302;2024-03-29T09:16:24;1.77;;;1.00;;
66118;SDS011;52912;48.564;9.302;2024-03-29T09:18:50;0.85;;;0.85;;
66118;SDS011;52912;48.564;9.302;2024-03-29T09:21:15;2.38;;;1.30;;
66118;SDS011;52912;48.564;9.302;2024-03-29T09:23:41;2.50;;;1.17;;
66118;SDS011;52912;48.564;9.302;2024-03-29T09:26:06;1.35;;;1.10;;
66118;SDS011;52912;48.564;9.302;2024-03-29T09:28:32;1.25;;;1.10;;
66118;SDS011;52912;48.564;9.302;2024-03-29T09:30:59;1.25;;;1.17;;
66118;SDS011;52912;48.564;9.302;2024-03-29T09:33:25;3.28;;;1.38;;
66118;SDS011;52912;48.564;9.302;2024-03-29T09:35:51;1.38;;;1.08;;
66118;SDS011;52912;48.564;9.302;2024-03-29T09:38:16;1.48;;;1.20;;
66118;SDS011;52912;48.564;9.302;2024-03-29T09:40:42;1.27;;;1.10;;
66118;SDS011;52912;48.564;9.302;2024-03-29T09:43:08;2.30;;;1.10;;
66118;SDS011;52912;48.564;9.302;2024-03-29T09:45:35;1.60;;;1.30;;
66118;SDS011;52912;48.564;9.302;2024-03-29T09:48:03;0.95;;;0.90;;
66118;SDS011;52912;48.564;9.302;2024-03-29T09:50:30;1.42;;;1.08;;
66118;SDS011;52912;48.564;9.302;2024-03-29T09:52:56;1.83;;;1.33;;
66118;SDS011;52912;48.564;9.302;2024-03-29T09:55:22;1.33;;;1.08;;
66118;SDS011;52912;48.564;9.302;2024-03-29T09:57:48;1.05;;;0.90;;
66118;SDS011;52912;48.564;9.302;2024-03-29T10:00:14;2.00;;;1.45;;
66118;SDS011;52912;48.564;9.302;2024-03-29T10:02:40;1.52;;;1.20;;
66118;SDS011;52912;48.564;9.302;2024-03-29T10:05:08;1.75;;;1.33;;
66118;SDS011;52912;48.564;9.302;2024-03-29T10:07:35;1.00;;;0.90;;
66118;SDS011;52912;48.564;9.302;2024-03-29T10:10:02;3.05;;;1.27;;
66118;SDS011;52912;48.564;9.302;2024-03-29T10:12:29;2.05;;;1.35;;
66118;SDS011;52912;48.564;9.302;2024-03-29T10:14:54;1.45;;;1.20;;
66118;SDS011;52912;48.564;9.302;2024-03-29T10:17:21;1.00;;;0.85;;
66118;SDS011;52912;48.564;9.302;2024-03-29T10:19:46;0.88;;;0.88;;
66118;SDS011;52912;48.564;9.302;2024-03-29T10:22:13;0.80;;;0.80;;
66118;SDS011;52912;48.564;9.302;2024-03-29T10:24:39;2.65;;;1.25;;
66118;SDS011;52912;48.564;9.302;2024-03-29T10:27:04;1.98;;;1.27;;
66118;SDS011;52912;48.564;9.302;2024-03-29T10:29:30;0.80;;;0.80;;
66118;SDS011;52912;48.564;9.302;2024-03-29T10:31:55;1.90;;;1.10;;
66118;SDS011;52912;48.564;9.302;2024-03-29T10:34:21;1.10;;;0.80;;
66118;SDS011;52912;48.564;9.302;2024-03-29T10:36:46;0.80;;;0.80;;
66118;SDS011;52912;48.564;9.302;2024-03-29T10:39:13;0.70;;;0.70;;
66118;SDS011;52912;48.564;9.302;2024-03-29T10:41:39;1.15;;;1.02;;
66118;SDS011;52912;48.564;9.302;2024-03-29T10:44:05;1.83;;;1.00;;
66118;SDS011;52912;48.564;9.302;2024-03-29T10:46:34;0.82;;;0.80;;
66118;SDS011;52912;48.564;9.302;2024-03-29T10:49:01;0.90;;;0.80;;
66118;SDS011;52912;48.564;9.302;2024-03-29T10:51:28;0.85;;;0.82;;
66118;SDS011;52912;48.564;9.302;2024-03-29T10:53:54;2.15;;;1.10;;
66118;SDS011;52912;48.564;9.302;2024-03-29T10:56:22;1.60;;;1.05;;
66118;SDS011;52912;48.564;9.302;2024-03-29T10:58:50;1.48;;;0.90;;
66118;SDS011;52912;48.564;9.302;2024-03-29T11:01:20;0.73;;;0.70;;
66118;SDS011;52912;48.564;9.302;2024-03-29T11:03:48;2.60;;;1.30;;
66118;SDS011;52912;48.564;9.302;2024-03-29T11:06:18;1.38;;;1.02;;
66118;SDS011;52912;48.564;9.302;2024-03-29T11:08:48;2.83;;;1.23;;
66118;SDS011;52912;48.564;9.302;2024-03-29T11:11:17;1.50;;;1.08;;
66118;SDS011;52912;48.564;9.302;2024-03-29T11:13:45;0.93;;;0.88;;
66118;SDS011;52912;48.564;9.302;2024-03-29T11:16:14;2.03;;;1.00;;
66118;SDS011;52912;48.564;9.302;2024-03-29T11:18:40;0.95;;;0.90;;
66118;SDS011;52912;48.564;9.302;2024-03-29T11:21:05;0.80;;;0.80;;
66118;SDS011;52912;48.564;9.302;2024-03-29T11:23:32;0.82;;;0.63;;
66118;SDS011;52912;48.564;9.302;2024-03-29T11:25:58;0.68;;;0.68;;
66118;SDS011;52912;48.564;9.302;2024-03-29T11:28:24;0.60;;;0.60;;
66118;SDS011;52912;48.564;9.302;2024-03-29T11:30:51;0.88;;;0.70;;
66118;SDS011;52912;48.564;9.302;2024-03-29T11:33:27;0.90;;;0.90;;
66118;SDS011;52912;48.564;9.302;2024-03-29T11:35:54;0.70;;;0.70;;
66118;SDS011;52912;48.564;9.302;2024-03-29T11:38:20;2.83;;;0.68;;
66118;SDS011;52912;48.564;9.302;2024-03-29T11:40:53;0.75;;;0.75;;
66118;SDS011;52912;48.564;9.302;2024-03-29T11:43:19;0.60;;;0.60;;
66118;SDS011;52912;48.564;9.302;2024-03-29T11:45:44;4.93;;;1.98;;
66118;SDS011;52912;48.564;9.302;2024-03-29T11:48:11;0.95;;;0.82;;
66118;SDS011;52912;48.564;9.302;2024-03-29T11:50:40;2.80;;;1.27;;
66118;SDS011;52912;48.564;9.302;2024-03-29T11:53:05;0.98;;;0.73;;
66118;SDS011;52912;48.564;9.302;2024-03-29T11:55:31;0.80;;;0.80;;
66118;SDS011;52912;48.564;9.302;2024-03-29T11:57:56;3.70;;;1.10;;
66118;SDS011;52912;48.564;9.302;2024-03-29T12:00:22;1.10;;;0.93;;
66118;SDS011;52912;48.564;9.302;2024-03-29T12:02:47;0.90;;;0.90;;
66118;SDS011;52912;48.564;9.302;2024-03-29T12:05:14;1.38;;;1.08;;
66118;SDS011;52912;48.564;9.302;2024-03-29T12:07:40;1.70;;;1.30;;
66118;SDS011;52912;48.564;9.302;2024-03-29T12:10:06;1.13;;;0.95;;
66118;SDS011;52912;48.564;9.302;2024-03-29T12:12:33;2.38;;;1.40;;
66118;SDS011;52912;48.564;9.302;2024-03-29T12:14:59;2.00;;;1.30;;
66118;SDS011;52912;48.564;9.302;2024-03-29T12:17:24;1.20;;;1.02;;
66118;SDS011;52912;48.564;9.302;2024-03-29T12:19:50;1.48;;;0.80;;
66118;SDS011;52912;48.564;9.302;2024-03-29T12:22:16;1.25;;;0.88;;
66118;SDS011;52912;48.564;9.302;2024-03-29T12:24:42;1.58;;;0.93;;
66118;SDS011;52912;48.564;9.302;2024-03-29T12:27:08;0.60;;;0.60;;
66118;SDS011;52912;48.564;9.302;2024-03-29T12:29:33;1.23;;;0.80;;
66118;SDS011;52912;48.564;9.302;2024-03-29T12:31:59;0.85;;;0.70;;
66118;SDS011;52912;48.564;9.302;2024-03-29T12:34:25;1.00;;;0.80;;
66118;SDS011;52912;48.564;9.302;2024-03-29T12:36:50;0.85;;;0.80;;
66118;SDS011;52912;48.564;9.302;2024-03-29T12:39:18;1.08;;;1.00;;
66118;SDS011;52912;48.564;9.302;2024-03-29T12:41:43;0.80;;;0.80;;
66118;SDS011;52912;48.564;9.302;2024-03-29T12:44:11;1.17;;;1.00;;
66118;SDS011;52912;48.564;9.302;2024-03-29T12:46:37;1.00;;;0.82;;
66118;SDS011;52912;48.564;9.302;2024-03-29T12:49:02;1.25;;;0.70;;
66118;SDS011;52912;48.564;9.302;2024-03-29T12:51:28;0.98;;;0.98;;
66118;SDS011;52912;48.564;9.302;2024-03-29T12:53:53;1.27;;;1.10;;
66118;SDS011;52912;48.564;9.302;2024-03-29T12:56:20;1.05;;;0.85;;
66118;SDS011;52912;48.564;9.302;2024-03-29T12:58:45;1.98;;;1.10;;
66118;SDS011;52912;48.564;9.302;2024-03-29T13:01:11;1.52;;;1.10;;
66118;SDS011;52912;48.564;9.302;2024-03-29T13:03:37;2.47;;;1.67;;
66118;SDS011;52912;48.564;9.302;2024-03-29T13:06:02;1.35;;;1.05;;
66118;SDS011;52912;48.564;9.302;2024-03-29T13:08:28;1.35;;;1.13;;
66118;SDS011;52912;48.564;9.302;2024-03-29T13:10:53;1.33;;;1.02;;
66118;SDS011;52912;48.564;9.302;2024-03-29T13:13:20;1.45;;;1.08;;
66118;SDS011;52912;48.564;9.302;2024-03-29T13:15:45;2.58;;;1.23;;
66118;SDS011;52912;48.564;9.302;2024-03-29T13:18:11;1.33;;;1.00;;
66118;SDS011;52912;48.564;9.302;2024-03-29T13:20:36;1.30;;;1.00;;
66118;SDS011;52912;48.564;9.302;2024-03-29T13:23:02;1.20;;;1.00;;
66118;SDS011;52912;48.564;9.302;2024-03-29T13:25:28;1.33;;;1.10;;
66118;SDS011;52912;48.564;9.302;2024-03-29T13:27:54;1.30;;;1.00;;
66118;SDS011;52912;48.564;9.302;2024-03-29T13:30:21;1.20;;;1.10;;
66118;SDS011;52912;48.564;9.302;2024-03-29T13:32:47;1.17;;;1.05;;
66118;SDS011;52912;48.564;9.302;2024-03-29T13:35:13;0.73;;;0.73;;
66118;SDS011;52912;48.564;9.302;2024-03-29T13:37:41;1.05;;;0.80;;
66118;SDS011;52912;48.564;9.302;2024-03-29T13:40:08;0.98;;;0.93;;
66118;SDS011;52912;48.564;9.302;2024-03-29T13:42:36;2.63;;;1.00;;
66118;SDS011;52912;48.564;9.302;2024-03-29T13:45:02;1.17;;;1.00;;
66118;SDS011;52912;48.564;9.302;2024-03-29T13:47:29;1.52;;;1.00;;
66118;SDS011;52912;48.564;9.302;2024-03-29T13:49:54;1.15;;;0.90;;
66118;SDS011;52912;48.564;9.302;2024-03-29T13:52:20;2.15;;;1.27;;
66118;SDS011;52912;48.564;9.302;2024-03-29T13:54:46;1.13;;;1.00;;
66118;SDS011;52912;48.564;9.302;2024-03-29T13:57:11;1.08;;;1.00;;
66118;SDS011;52912;48.564;9.302;2024-03-29T13:59:37;0.93;;;0.93;;
66118;SDS011;52912;48.564;9.302;2024-03-29T14:02:02;1.20;;;1.10;;
66118;SDS011;52912;48.564;9.302;2024-03-29T14:04:29;1.10;;;1.00;;
66118;SDS011;52912;48.564;9.302;2024-03-29T14:06:55;1.42;;;1.00;;
66118;SDS011;52912;48.564;9.302;2024-03-29T14:09:20;1.65;;;1.10;;
66118;SDS011;52912;48.564;9.302;2024-03-29T14:11:45;0.75;;;0.75;;
66118;SDS011;52912;48.564;9.302;2024-03-29T14:14:11;1.13;;;0.90;;
66118;SDS011;52912;48.564;9.302;2024-03-29T14:16:36;1.60;;;1.30;;
66118;SDS011;52912;48.564;9.302;2024-03-29T14:19:02;1.63;;;1.02;;
66118;SDS011;52912;48.564;9.302;2024-03-29T14:21:29;2.08;;;1.05;;
66118;SDS011;52912;48.564;9.302;2024-03-29T14:23:55;1.50;;;0.90;;
66118;SDS011;52912;48.564;9.302;2024-03-29T14:26:21;1.30;;;1.10;;
66118;SDS011;52912;48.564;9.302;2024-03-29T14:28:46;1.00;;;0.90;;
66118;SDS011;52912;48.564;9.302;2024-03-29T14:31:12;1.55;;;1.23;;
66118;SDS011;52912;48.564;9.302;2024-03-29T14:33:37;1.33;;;0.98;;
66118;SDS011;52912;48.564;9.302;2024-03-29T14:36:03;1.83;;;1.33;;
66118;SDS011;52912;48.564;9.302;2024-03-29T14:38:30;1.05;;;0.93;;
66118;SDS011;52912;48.564;9.302;2024-03-29T14:40:56;1.08;;;0.98;;